createdAt,value
2018-09-28T00:04:24.325Z,100563.02
2018-09-28T00:09:27.600Z,100558.92
2018-09-28T00:14:30.871Z,100563.31
2018-09-28T00:19:34.131Z,100560.16
2018-09-28T00:24:37.608Z,100554.85
2018-09-28T00:29:40.865Z,100554.70
2018-09-28T00:34:44.139Z,100553.13
2018-09-28T00:39:47.457Z,100553.00
2018-09-28T00:44:50.712Z,100546.09
2018-09-28T00:49:53.991Z,100545.56
2018-09-28T00:54:57.280Z,100540.61
2018-09-28T01:00:00.548Z,100530.73
2018-09-28T01:05:04.104Z,100525.09
2018-09-28T01:10:07.373Z,100504.63
2018-09-28T01:15:10.641Z,100516.17
2018-09-28T01:20:13.908Z,100514.41
2018-09-28T01:25:17.174Z,100511.66
2018-09-28T01:30:20.472Z,100507.16
2018-09-28T01:35:23.732Z,100502.98
2018-09-28T01:40:27.045Z,100497.06
2018-09-28T01:45:30.316Z,100496.30
2018-09-28T01:50:33.586Z,100496.78
2018-09-28T01:55:36.899Z,100493.19
2018-09-28T02:00:40.160Z,100490.03
2018-09-28T02:05:43.415Z,100481.30
2018-09-28T02:10:46.688Z,100489.30
2018-09-28T02:15:49.984Z,100484.77
2018-09-28T02:20:53.268Z,100487.16
2018-09-28T02:25:56.553Z,100493.56
2018-09-28T02:30:59.825Z,100490.16
2018-09-28T02:36:03.114Z,100499.27
2018-09-28T02:41:06.568Z,100498.16
2018-09-28T02:46:09.831Z,100501.72
2018-09-28T02:51:13.120Z,100501.97
2018-09-28T02:56:16.384Z,100501.78
2018-09-28T03:01:19.733Z,100505.34
2018-09-28T03:06:23.275Z,100509.73
2018-09-28T03:11:26.468Z,100509.16
2018-09-28T03:16:29.746Z,100501.22
2018-09-28T03:21:33.008Z,100505.98
2018-09-28T03:26:36.308Z,100505.66
2018-09-28T03:31:39.572Z,100506.85
2018-09-28T03:36:42.849Z,100506.28
2018-09-28T03:41:46.113Z,100499.41
2018-09-28T03:46:49.549Z,100509.33
2018-09-28T03:51:52.816Z,100503.38
2018-09-28T03:56:56.076Z,100498.64
2018-09-28T04:01:59.373Z,100501.77
2018-09-28T04:07:02.637Z,100502.20
2018-09-28T04:12:05.903Z,100507.94
2018-09-28T04:17:09.226Z,100515.46
2018-09-28T04:22:12.544Z,100517.66
2018-09-28T04:27:15.841Z,100524.02
2018-09-28T04:32:19.109Z,100523.06
2018-09-28T04:37:22.372Z,100526.85
2018-09-28T04:42:25.640Z,100530.45
2018-09-28T04:47:28.908Z,100532.59
2018-09-28T04:52:32.213Z,100543.73
2018-09-28T04:57:35.476Z,100543.33
2018-09-28T05:02:38.749Z,100541.01
2018-09-28T05:07:42.027Z,100543.41
2018-09-28T05:12:45.556Z,100543.05
2018-09-28T05:17:48.825Z,100552.37
2018-09-28T05:22:52.303Z,100544.79
2018-09-28T05:27:55.647Z,100556.31
2018-09-28T05:32:59.164Z,100572.98
2018-09-28T05:38:02.277Z,100581.50
2018-09-28T05:43:05.576Z,100573.80
2018-09-28T05:48:08.849Z,100575.22
2018-09-28T05:53:12.136Z,100591.25
2018-09-28T05:58:20.907Z,100588.47
2018-09-28T06:03:24.192Z,100594.02
2018-09-28T06:08:27.456Z,100592.23
2018-09-28T06:13:30.727Z,100594.45
2018-09-28T06:18:35.788Z,100610.04
2018-09-28T06:23:39.145Z,100612.02
2018-09-28T06:28:42.413Z,100610.03
2018-09-28T06:33:45.680Z,100608.34
2018-09-28T06:38:49.258Z,100603.55
2018-09-28T06:43:52.803Z,100615.10
2018-09-28T06:48:56.256Z,100633.69
2018-09-28T06:53:59.716Z,100641.60
2018-09-28T06:59:03.056Z,100650.05
2018-09-28T07:04:06.348Z,100657.51
2018-09-28T07:09:11.687Z,100662.40
2018-09-28T07:14:14.963Z,100659.77
2018-09-28T07:19:18.308Z,100671.27
2018-09-28T07:24:21.573Z,100674.38
2018-09-28T07:29:24.868Z,100685.81
2018-09-28T07:34:28.144Z,100685.96
2018-09-28T07:39:31.431Z,100690.30
2018-09-28T07:44:34.718Z,100700.56
2018-09-28T07:49:37.983Z,100701.73
2018-09-28T07:54:41.259Z,100709.25
2018-09-28T07:59:44.541Z,100723.07
2018-09-28T08:04:47.819Z,100723.34
2018-09-28T08:09:51.076Z,100731.98
2018-09-28T08:14:54.350Z,100738.64
2018-09-28T08:19:57.664Z,100748.69
2018-09-28T08:25:00.940Z,100749.88
2018-09-28T08:30:04.296Z,100761.70
2018-09-28T08:35:07.555Z,100762.30
2018-09-28T08:40:10.840Z,100769.65
2018-09-28T08:45:14.116Z,100780.91
2018-09-28T08:50:17.381Z,100795.86
2018-09-28T08:55:20.643Z,100804.94
2018-09-28T09:00:24.004Z,100802.28
2018-09-28T09:05:27.281Z,100806.06
2018-09-28T09:10:30.541Z,100807.14
2018-09-28T09:15:33.836Z,100809.05
2018-09-28T09:20:37.099Z,100814.00
2018-09-28T09:25:40.383Z,100827.73
2018-09-28T09:30:43.639Z,100830.95
2018-09-28T09:35:46.905Z,100828.70
2018-09-28T09:40:50.177Z,100833.16
2018-09-28T09:45:53.448Z,100836.27
2018-09-28T09:50:56.711Z,100832.58
2018-09-28T09:56:00.018Z,100836.48
2018-09-28T10:01:05.995Z,100842.23
2018-09-28T10:06:10.280Z,100844.05
2018-09-28T10:11:13.552Z,100851.14
2018-09-28T10:16:16.875Z,100846.30
2018-09-28T10:21:20.326Z,100844.77
2018-09-28T10:26:23.601Z,100840.47
2018-09-28T10:31:26.940Z,100840.47
2018-09-28T10:36:30.380Z,100838.86
2018-09-28T10:41:33.844Z,100844.79
2018-09-28T10:46:37.133Z,100845.72
2018-09-28T10:51:40.471Z,100849.75
2018-09-28T10:56:43.701Z,100851.55
2018-09-28T11:01:46.987Z,100848.77
2018-09-28T11:06:50.256Z,100845.37
2018-09-28T11:11:53.524Z,100848.94
2018-09-28T11:16:56.804Z,100845.80
2018-09-28T11:22:00.261Z,100852.58
2018-09-28T11:27:03.708Z,100851.59
2018-09-28T11:32:11.650Z,100849.61
2018-09-28T11:37:15.440Z,100847.90
2018-09-28T11:42:18.700Z,100839.78
2018-09-28T11:47:21.989Z,100841.27
2018-09-28T11:52:25.384Z,100843.63
2018-09-28T12:20:00.433Z,100832.05
2018-09-28T12:25:03.785Z,100827.61
2018-09-28T12:30:07.474Z,100824.66
2018-09-28T12:35:10.749Z,100832.19
2018-09-28T12:40:14.124Z,100820.55
2018-09-28T12:45:17.583Z,100823.52
2018-09-28T12:50:20.924Z,100823.25
2018-09-28T12:55:25.074Z,100818.48
2018-09-28T13:00:28.435Z,100825.07
2018-09-28T13:05:31.630Z,100822.89
2018-09-28T13:10:38.943Z,100828.91
2018-09-28T13:15:42.280Z,100824.97
2018-09-28T13:20:45.599Z,100823.36
2018-09-28T13:25:48.843Z,100837.33
2018-09-28T13:30:52.203Z,100842.37
2018-09-28T13:35:55.477Z,100842.80
2018-09-28T13:40:58.740Z,100841.14
2018-09-28T13:46:02.223Z,100850.11
2018-09-28T13:51:05.556Z,100846.63
2018-09-28T13:56:08.844Z,100852.29
2018-09-28T14:01:12.128Z,100853.08
2018-09-28T14:06:15.410Z,100859.29
2018-09-28T14:11:18.699Z,100871.00
2018-09-28T14:16:21.989Z,100879.44
2018-09-28T14:21:25.260Z,100876.34
2018-09-28T14:26:28.553Z,100883.50
2018-09-28T14:31:31.832Z,100878.73
2018-09-28T14:36:35.107Z,100878.13
2018-09-28T14:41:38.396Z,100889.89
2018-09-28T14:46:41.738Z,100887.40
2018-09-28T14:51:44.952Z,100886.27
2018-09-28T14:56:48.383Z,100883.14
2018-09-28T15:01:51.512Z,100892.48
2018-09-28T15:06:54.861Z,100893.46
2018-09-28T15:11:58.064Z,100899.97
2018-09-28T15:17:01.329Z,100904.52
2018-09-28T15:22:04.636Z,100907.87
2018-09-28T15:27:07.909Z,100911.27
2018-09-28T15:32:11.172Z,100915.55
2018-09-28T15:37:14.445Z,100916.74
2018-09-28T15:42:17.754Z,100917.94
2018-09-28T15:47:21.033Z,100924.80
2018-09-28T15:52:24.325Z,100935.16
2018-09-28T15:57:27.603Z,100936.95
2018-09-28T16:02:30.937Z,100936.77
2018-09-28T16:07:34.409Z,100942.20
2018-09-28T16:12:37.860Z,100937.89
2018-09-28T16:17:41.183Z,100946.50
2018-09-28T16:22:44.531Z,100947.70
2018-09-28T16:27:47.796Z,100956.52
2018-09-28T16:32:51.265Z,100965.42
2018-09-28T16:37:54.540Z,100972.02
2018-09-28T16:42:57.998Z,100985.36
2018-09-28T16:48:01.745Z,100990.88
2018-09-28T16:53:05.065Z,100994.09
2018-09-28T16:58:08.352Z,101005.02
2018-09-28T17:03:11.632Z,101013.41
2018-09-28T17:08:14.892Z,101011.41
2018-09-28T17:13:18.154Z,101025.10
2018-09-28T17:18:21.524Z,101030.10
2018-09-28T17:23:24.789Z,101036.66
2018-09-28T17:28:28.114Z,101042.17
2018-09-28T17:33:31.397Z,101036.97
2018-09-28T17:38:34.663Z,101058.59
2018-09-28T17:43:37.945Z,101068.17
2018-09-28T17:48:41.253Z,101069.21
2018-09-28T17:53:44.529Z,101078.41
2018-09-28T17:58:47.816Z,101086.35
2018-09-28T18:03:51.091Z,101095.58
2018-09-28T18:08:54.355Z,101101.67
2018-09-28T18:13:57.619Z,101102.27
2018-09-28T18:19:00.885Z,101116.00
2018-09-28T18:24:04.169Z,101120.55
2018-09-28T18:29:07.457Z,101126.33
2018-09-28T18:34:10.720Z,101129.14
2018-09-28T18:39:14.030Z,101127.36
2018-09-28T18:44:17.537Z,101135.45
2018-09-28T18:49:20.801Z,101143.20
2018-09-28T18:54:25.245Z,101141.80
2018-09-28T18:59:28.531Z,101154.32
2018-09-28T19:04:31.801Z,101155.89
2018-09-28T19:09:37.175Z,101156.48
2018-09-28T19:14:40.795Z,101152.32
2018-09-28T19:19:44.081Z,101155.48
2018-09-28T19:24:47.352Z,101167.77
2018-09-28T19:29:50.676Z,101176.11
2018-09-28T19:34:54.052Z,101176.45
2018-09-28T19:39:57.312Z,101187.22
2018-09-28T19:45:00.673Z,101200.29
2018-09-28T19:50:04.459Z,101199.73
2018-09-28T19:55:07.772Z,101207.63
2018-09-28T20:00:11.094Z,101209.61
2018-09-28T20:05:14.822Z,101206.63
2018-09-28T20:10:18.106Z,101211.06
2018-09-28T20:15:21.367Z,101214.29
2018-09-28T20:20:25.264Z,101224.72
2018-09-28T20:25:28.688Z,101230.38
2018-09-28T20:30:32.908Z,101242.34
2018-09-28T20:35:36.252Z,101242.94
2018-09-28T20:40:39.659Z,101248.30
2018-09-28T20:45:42.937Z,101255.62
2018-09-28T20:50:46.212Z,101255.81
2018-09-28T20:55:49.537Z,101257.45
2018-09-28T21:00:52.958Z,101260.23
2018-09-28T21:05:56.255Z,101255.66
2018-09-28T21:11:00.220Z,101255.10
2018-09-28T21:16:03.497Z,101251.73
2018-09-28T21:21:07.263Z,101255.90
2018-09-28T21:26:10.936Z,101264.64
2018-09-28T21:31:14.334Z,101275.16
2018-09-28T21:36:17.701Z,101274.80
2018-09-28T21:41:21.087Z,101284.33
2018-09-28T21:46:24.716Z,101287.50
2018-09-28T21:51:28.612Z,101282.34
2018-09-28T21:56:31.881Z,101292.47
2018-09-28T22:01:35.180Z,101295.67
2018-09-28T22:06:38.489Z,101292.09
2018-09-28T22:11:41.813Z,101314.33
2018-09-28T22:16:45.261Z,101306.00
2018-09-28T22:21:48.925Z,101301.26
2018-09-28T22:26:52.455Z,101309.20
2018-09-28T22:31:55.841Z,101319.32
2018-09-28T22:36:59.168Z,101324.87
2018-09-28T22:42:02.777Z,101323.88
2018-09-28T22:47:06.271Z,101327.09
2018-09-28T22:52:09.695Z,101333.23
2018-09-28T22:57:13.118Z,101339.39
2018-09-28T23:02:16.417Z,101339.96
2018-09-28T23:07:19.688Z,101342.77
2018-09-28T23:12:23.064Z,101331.25
2018-09-28T23:17:26.360Z,101345.34
2018-09-28T23:22:29.624Z,101349.50
2018-09-28T23:27:32.981Z,101352.88
2018-09-28T23:32:36.360Z,101354.86
2018-09-28T23:37:39.631Z,101352.08
2018-09-28T23:42:42.908Z,101359.66
2018-09-28T23:47:46.299Z,101365.02
2018-09-28T23:52:49.513Z,101357.86
2018-09-28T23:57:52.783Z,101357.66
